sensor_id;sensor_type;location;lat;lon;timestamp;temperature;humidity
44509;DHT22;30214;52.246;14.408;2024-01-06T00:00:21;0.10;99.90
44509;DHT22;30214;52.246;14.408;2024-01-06T00:02:48;0.10;99.90
44509;DHT22;30214;52.246;14.408;2024-01-06T00:05:16;0.10;99.90
44509;DHT22;30214;52.246;14.408;2024-01-06T00:07:43;0.20;99.90
44509;DHT22;30214;52.246;14.408;2024-01-06T00:10:11;0.20;99.90
44509;DHT22;30214;52.246;14.408;2024-01-06T00:12:40;0.10;99.90
44509;DHT22;30214;52.246;14.408;2024-01-06T00:15:08;0.10;99.90
44509;DHT22;30214;52.246;14.408;2024-01-06T00:17:37;0.10;99.90
44509;DHT22;30214;52.246;14.408;2024-01-06T00:20:05;0.10;99.90
44509;DHT22;30214;52.246;14.408;2024-01-06T00:22:34;0.10;99.90
44509;DHT22;30214;52.246;14.408;2024-01-06T00:25:01;0.10;99.90
44509;DHT22;30214;52.246;14.408;2024-01-06T00:27:28;0.10;99.90
44509;DHT22;30214;52.246;14.408;2024-01-06T00:29:55;0.10;99.90
44509;DHT22;30214;52.246;14.408;2024-01-06T00:32:22;0.10;99.90
44509;DHT22;30214;52.246;14.408;2024-01-06T00:34:52;0.10;99.90
44509;DHT22;30214;52.246;14.408;2024-01-06T00:37:21;0.10;99.90
44509;DHT22;30214;52.246;14.408;2024-01-06T00:39:48;0.10;99.90
44509;DHT22;30214;52.246;14.408;2024-01-06T00:42:16;0.10;99.90
44509;DHT22;30214;52.246;14.408;2024-01-06T00:44:43;0.10;99.90
44509;DHT22;30214;52.246;14.408;2024-01-06T00:47:10;0.10;99.90
44509;DHT22;30214;52.246;14.408;2024-01-06T00:49:37;0.20;99.90
44509;DHT22;30214;52.246;14.408;2024-01-06T00:52:06;0.20;99.90
44509;DHT22;30214;52.246;14.408;2024-01-06T00:54:33;0.20;99.90
44509;DHT22;30214;52.246;14.408;2024-01-06T00:57:00;0.20;99.90
44509;DHT22;30214;52.246;14.408;2024-01-06T00:59:27;0.10;99.90
44509;DHT22;30214;52.246;14.408;2024-01-06T01:01:54;0.10;99.90
44509;DHT22;30214;52.246;14.408;2024-01-06T01:04:21;0.20;99.90
44509;DHT22;30214;52.246;14.408;2024-01-06T01:06:48;0.20;99.90
44509;DHT22;30214;52.246;14.408;2024-01-06T01:09:16;0.10;99.90
44509;DHT22;30214;52.246;14.408;2024-01-06T01:11:43;0.10;99.90
44509;DHT22;30214;52.246;14.408;2024-01-06T01:14:10;0.10;99.90
44509;DHT22;30214;52.246;14.408;2024-01-06T01:16:37;0.10;99.90
44509;DHT22;30214;52.246;14.408;2024-01-06T01:19:04;0.10;99.90
44509;DHT22;30214;52.246;14.408;2024-01-06T01:21:31;0.10;99.90
44509;DHT22;30214;52.246;14.408;2024-01-06T01:23:58;0.10;99.90
44509;DHT22;30214;52.246;14.408;2024-01-06T01:26:26;0.10;99.90
44509;DHT22;30214;52.246;14.408;2024-01-06T01:28:53;0.20;99.90
44509;DHT22;30214;52.246;14.408;2024-01-06T01:31:21;0.20;99.90
44509;DHT22;30214;52.246;14.408;2024-01-06T01:33:48;0.20;99.90
44509;DHT22;30214;52.246;14.408;2024-01-06T01:36:15;0.20;99.90
44509;DHT22;30214;52.246;14.408;2024-01-06T01:38:43;0.20;99.90
44509;DHT22;30214;52.246;14.408;2024-01-06T01:41:10;0.20;99.90
44509;DHT22;30214;52.246;14.408;2024-01-06T01:43:38;0.10;99.90
44509;DHT22;30214;52.246;14.408;2024-01-06T01:46:05;0.10;99.90
44509;DHT22;30214;52.246;14.408;2024-01-06T01:48:33;0.10;99.90
44509;DHT22;30214;52.246;14.408;2024-01-06T01:51:00;0.20;99.90
44509;DHT22;30214;52.246;14.408;2024-01-06T01:53:27;0.10;99.90
44509;DHT22;30214;52.246;14.408;2024-01-06T01:55:54;0.10;99.90
44509;DHT22;30214;52.246;14.408;2024-01-06T01:58:21;0.10;99.90
44509;DHT22;30214;52.246;14.408;2024-01-06T02:00:49;0.00;99.90
44509;DHT22;30214;52.246;14.408;2024-01-06T02:03:17;0.10;99.90
44509;DHT22;30214;52.246;14.408;2024-01-06T02:05:44;0.10;99.90
44509;DHT22;30214;52.246;14.408;2024-01-06T02:08:11;0.10;99.90
44509;DHT22;30214;52.246;14.408;2024-01-06T02:10:37;0.00;99.90
44509;DHT22;30214;52.246;14.408;2024-01-06T02:13:08;0.00;99.90
44509;DHT22;30214;52.246;14.408;2024-01-06T02:15:36;0.10;99.90
44509;DHT22;30214;52.246;14.408;2024-01-06T02:18:05;0.10;99.90
44509;DHT22;30214;52.246;14.408;2024-01-06T02:20:32;0.10;99.90
44509;DHT22;30214;52.246;14.408;2024-01-06T02:23:00;0.10;99.90
44509;DHT22;30214;52.246;14.408;2024-01-06T02:25:27;0.10;99.90
44509;DHT22;30214;52.246;14.408;2024-01-06T02:27:54;0.10;99.90
44509;DHT22;30214;52.246;14.408;2024-01-06T02:30:21;0.00;99.90
44509;DHT22;30214;52.246;14.408;2024-01-06T02:32:48;0.00;99.90
44509;DHT22;30214;52.246;14.408;2024-01-06T02:35:15;0.00;99.90
44509;DHT22;30214;52.246;14.408;2024-01-06T02:37:42;0.00;99.90
44509;DHT22;30214;52.246;14.408;2024-01-06T02:40:11;0.00;99.90
44509;DHT22;30214;52.246;14.408;2024-01-06T02:42:39;0.00;99.90
44509;DHT22;30214;52.246;14.408;2024-01-06T02:45:07;-0.10;99.90
44509;DHT22;30214;52.246;14.408;2024-01-06T02:47:34;0.00;99.90
44509;DHT22;30214;52.246;14.408;2024-01-06T02:50:03;0.00;99.90
44509;DHT22;30214;52.246;14.408;2024-01-06T02:52:31;0.00;99.90
44509;DHT22;30214;52.246;14.408;2024-01-06T02:54:58;0.00;99.90
44509;DHT22;30214;52.246;14.408;2024-01-06T02:57:27;-0.10;99.90
44509;DHT22;30214;52.246;14.408;2024-01-06T02:59:55;-0.10;99.90
44509;DHT22;30214;52.246;14.408;2024-01-06T03:02:22;0.00;99.90
44509;DHT22;30214;52.246;14.408;2024-01-06T03:04:49;0.00;99.90
44509;DHT22;30214;52.246;14.408;2024-01-06T03:07:16;0.00;99.90
44509;DHT22;30214;52.246;14.408;2024-01-06T03:09:43;0.00;99.90
44509;DHT22;30214;52.246;14.408;2024-01-06T03:12:09;0.00;99.90
44509;DHT22;30214;52.246;14.408;2024-01-06T03:14:38;0.00;99.90
44509;DHT22;30214;52.246;14.408;2024-01-06T03:17:05;0.00;99.90
44509;DHT22;30214;52.246;14.408;2024-01-06T03:19:32;0.00;99.90
44509;DHT22;30214;52.246;14.408;2024-01-06T03:21:59;0.00;99.90
44509;DHT22;30214;52.246;14.408;2024-01-06T03:24:26;0.00;99.90
44509;DHT22;30214;52.246;14.408;2024-01-06T03:26:53;0.00;99.90
44509;DHT22;30214;52.246;14.408;2024-01-06T03:29:20;0.00;99.90
44509;DHT22;30214;52.246;14.408;2024-01-06T03:31:48;-0.10;99.90
44509;DHT22;30214;52.246;14.408;2024-01-06T03:34:15;0.00;99.90
44509;DHT22;30214;52.246;14.408;2024-01-06T03:36:42;-0.10;99.90
44509;DHT22;30214;52.246;14.408;2024-01-06T03:39:09;-0.10;99.90
44509;DHT22;30214;52.246;14.408;2024-01-06T03:41:37;-0.10;99.90
44509;DHT22;30214;52.246;14.408;2024-01-06T03:44:04;-0.10;99.90
44509;DHT22;30214;52.246;14.408;2024-01-06T03:46:33;0.00;99.90
44509;DHT22;30214;52.246;14.408;2024-01-06T03:49:02;0.00;99.90
44509;DHT22;30214;52.246;14.408;2024-01-06T03:51:29;0.00;99.90
44509;DHT22;30214;52.246;14.408;2024-01-06T03:53:56;0.00;99.90
44509;DHT22;30214;52.246;14.408;2024-01-06T03:56:25;0.00;99.90
44509;DHT22;30214;52.246;14.408;2024-01-06T03:58:52;-0.10;99.90
44509;DHT22;30214;52.246;14.408;2024-01-06T04:01:19;-0.10;99.90
44509;DHT22;30214;52.246;14.408;2024-01-06T04:03:46;-0.10;99.90
44509;DHT22;30214;52.246;14.408;2024-01-06T04:06:15;-0.10;99.90
44509;DHT22;30214;52.246;14.408;2024-01-06T04:08:42;-0.10;99.90
44509;DHT22;30214;52.246;14.408;2024-01-06T04:11:09;-0.10;99.90
44509;DHT22;30214;52.246;14.408;2024-01-06T04:13:36;0.00;99.90
44509;DHT22;30214;52.246;14.408;2024-01-06T04:16:03;-0.10;99.90
44509;DHT22;30214;52.246;14.408;2024-01-06T04:18:30;-0.10;99.90
44509;DHT22;30214;52.246;14.408;2024-01-06T04:20:59;-0.10;99.90
44509;DHT22;30214;52.246;14.408;2024-01-06T04:23:28;-0.10;99.90
44509;DHT22;30214;52.246;14.408;2024-01-06T04:25:54;-0.10;99.90
44509;DHT22;30214;52.246;14.408;2024-01-06T04:28:21;-0.10;99.90
44509;DHT22;30214;52.246;14.408;2024-01-06T04:30:48;-0.10;99.90
44509;DHT22;30214;52.246;14.408;2024-01-06T04:33:15;-0.10;99.90
44509;DHT22;30214;52.246;14.408;2024-01-06T04:35:42;-0.10;99.90
44509;DHT22;30214;52.246;14.408;2024-01-06T04:38:09;-0.20;99.90
44509;DHT22;30214;52.246;14.408;2024-01-06T04:40:37;-0.20;99.90
44509;DHT22;30214;52.246;14.408;2024-01-06T04:43:04;-0.10;99.90
44509;DHT22;30214;52.246;14.408;2024-01-06T04:45:31;-0.20;99.90
44509;DHT22;30214;52.246;14.408;2024-01-06T04:47:58;-0.20;99.90
44509;DHT22;30214;52.246;14.408;2024-01-06T04:50:25;-0.20;99.90
44509;DHT22;30214;52.246;14.408;2024-01-06T04:52:52;-0.10;99.90
44509;DHT22;30214;52.246;14.408;2024-01-06T04:55:19;-0.10;99.90
44509;DHT22;30214;52.246;14.408;2024-01-06T04:57:47;-0.10;99.90
44509;DHT22;30214;52.246;14.408;2024-01-06T05:00:14;-0.10;99.90
44509;DHT22;30214;52.246;14.408;2024-01-06T05:02:41;-0.10;99.90
44509;DHT22;30214;52.246;14.408;2024-01-06T05:05:08;-0.10;99.90
44509;DHT22;30214;52.246;14.408;2024-01-06T05:07:35;-0.10;99.90
44509;DHT22;30214;52.246;14.408;2024-01-06T05:10:02;-0.10;99.90
44509;DHT22;30214;52.246;14.408;2024-01-06T05:12:29;-0.10;99.90
44509;DHT22;30214;52.246;14.408;2024-01-06T05:14:58;-0.10;99.90
44509;DHT22;30214;52.246;14.408;2024-01-06T05:17:25;-0.10;99.90
44509;DHT22;30214;52.246;14.408;2024-01-06T05:19:52;-0.10;99.90
44509;DHT22;30214;52.246;14.408;2024-01-06T05:22:19;-0.10;99.90
44509;DHT22;30214;52.246;14.408;2024-01-06T05:24:46;-0.10;99.90
44509;DHT22;30214;52.246;14.408;2024-01-06T05:27:12;-0.10;99.90
44509;DHT22;30214;52.246;14.408;2024-01-06T05:29:39;-0.10;99.90
44509;DHT22;30214;52.246;14.408;2024-01-06T05:32:08;-0.10;99.90
44509;DHT22;30214;52.246;14.408;2024-01-06T05:34:35;0.00;99.90
44509;DHT22;30214;52.246;14.408;2024-01-06T05:37:02;-0.10;99.90
44509;DHT22;30214;52.246;14.408;2024-01-06T05:39:30;-0.10;99.90
44509;DHT22;30214;52.246;14.408;2024-01-06T05:41:56;0.00;99.90
44509;DHT22;30214;52.246;14.408;2024-01-06T05:44:23;-0.10;99.90
44509;DHT22;30214;52.246;14.408;2024-01-06T05:46:50;-0.10;99.90
44509;DHT22;30214;52.246;14.408;2024-01-06T05:49:19;0.00;99.90
44509;DHT22;30214;52.246;14.408;2024-01-06T05:51:46;0.00;99.90
44509;DHT22;30214;52.246;14.408;2024-01-06T05:54:12;-0.10;99.90
44509;DHT22;30214;52.246;14.408;2024-01-06T05:56:39;0.00;99.90
44509;DHT22;30214;52.246;14.408;2024-01-06T05:59:06;0.00;99.90
44509;DHT22;30214;52.246;14.408;2024-01-06T06:01:33;0.10;99.90
44509;DHT22;30214;52.246;14.408;2024-01-06T06:04:00;0.10;99.90
44509;DHT22;30214;52.246;14.408;2024-01-06T06:06:28;0.00;99.90
44509;DHT22;30214;52.246;14.408;2024-01-06T06:08:56;-0.10;99.90
44509;DHT22;30214;52.246;14.408;2024-01-06T06:11:23;-0.10;99.90
44509;DHT22;30214;52.246;14.408;2024-01-06T06:13:50;-0.10;99.90
44509;DHT22;30214;52.246;14.408;2024-01-06T06:16:17;-0.10;99.90
44509;DHT22;30214;52.246;14.408;2024-01-06T06:18:44;0.00;99.90
44509;DHT22;30214;52.246;14.408;2024-01-06T06:21:11;-0.10;99.90
44509;DHT22;30214;52.246;14.408;2024-01-06T06:23:39;0.00;99.90
44509;DHT22;30214;52.246;14.408;2024-01-06T06:26:06;0.00;99.90
44509;DHT22;30214;52.246;14.408;2024-01-06T06:28:34;0.00;99.90
44509;DHT22;30214;52.246;14.408;2024-01-06T06:31:01;0.10;99.90
44509;DHT22;30214;52.246;14.408;2024-01-06T06:33:28;0.00;99.90
44509;DHT22;30214;52.246;14.408;2024-01-06T06:35:55;0.00;99.90
44509;DHT22;30214;52.246;14.408;2024-01-06T06:38:22;0.10;99.90
44509;DHT22;30214;52.246;14.408;2024-01-06T06:40:50;0.10;99.90
44509;DHT22;30214;52.246;14.408;2024-01-06T06:43:17;0.10;99.90
44509;DHT22;30214;52.246;14.408;2024-01-06T06:45:44;0.10;99.90
44509;DHT22;30214;52.246;14.408;2024-01-06T06:48:11;0.10;99.90
44509;DHT22;30214;52.246;14.408;2024-01-06T06:50:38;0.10;99.90
44509;DHT22;30214;52.246;14.408;2024-01-06T06:53:06;0.10;99.90
44509;DHT22;30214;52.246;14.408;2024-01-06T06:55:33;0.10;99.90
44509;DHT22;30214;52.246;14.408;2024-01-06T06:58:04;0.10;99.90
44509;DHT22;30214;52.246;14.408;2024-01-06T07:00:31;0.00;99.90
44509;DHT22;30214;52.246;14.408;2024-01-06T07:02:58;0.00;99.90
44509;DHT22;30214;52.246;14.408;2024-01-06T07:05:25;0.00;99.90
44509;DHT22;30214;52.246;14.408;2024-01-06T07:07:52;0.00;99.90
44509;DHT22;30214;52.246;14.408;2024-01-06T07:10:19;0.00;99.90
44509;DHT22;30214;52.246;14.408;2024-01-06T07:12:46;0.00;99.90
44509;DHT22;30214;52.246;14.408;2024-01-06T07:15:14;0.00;99.90
44509;DHT22;30214;52.246;14.408;2024-01-06T07:17:41;0.00;99.90
44509;DHT22;30214;52.246;14.408;2024-01-06T07:20:08;-0.10;99.90
44509;DHT22;30214;52.246;14.408;2024-01-06T07:22:36;0.00;99.90
44509;DHT22;30214;52.246;14.408;2024-01-06T07:25:03;0.00;99.90
44509;DHT22;30214;52.246;14.408;2024-01-06T07:27:31;0.00;99.90
44509;DHT22;30214;52.246;14.408;2024-01-06T07:29:58;0.10;99.90
44509;DHT22;30214;52.246;14.408;2024-01-06T07:32:26;0.20;99.90
44509;DHT22;30214;52.246;14.408;2024-01-06T07:34:53;0.10;99.90
44509;DHT22;30214;52.246;14.408;2024-01-06T07:37:20;0.10;99.90
44509;DHT22;30214;52.246;14.408;2024-01-06T07:39:47;0.00;99.90
44509;DHT22;30214;52.246;14.408;2024-01-06T07:42:14;0.00;99.90
44509;DHT22;30214;52.246;14.408;2024-01-06T07:44:41;0.00;99.90
44509;DHT22;30214;52.246;14.408;2024-01-06T07:47:09;0.00;99.90
44509;DHT22;30214;52.246;14.408;2024-01-06T07:49:38;0.00;99.90
44509;DHT22;30214;52.246;14.408;2024-01-06T07:52:05;-0.10;99.90
44509;DHT22;30214;52.246;14.408;2024-01-06T07:54:32;-0.10;99.90
44509;DHT22;30214;52.246;14.408;2024-01-06T07:56:59;0.00;99.90
44509;DHT22;30214;52.246;14.408;2024-01-06T07:59:26;0.00;99.90
44509;DHT22;30214;52.246;14.408;2024-01-06T08:01:52;-0.10;99.90
44509;DHT22;30214;52.246;14.408;2024-01-06T08:04:19;-0.10;99.90
44509;DHT22;30214;52.246;14.408;2024-01-06T08:06:48;-0.10;99.90
44509;DHT22;30214;52.246;14.408;2024-01-06T08:09:14;-0.10;99.90
44509;DHT22;30214;52.246;14.408;2024-01-06T08:11:41;-0.20;99.90
44509;DHT22;30214;52.246;14.408;2024-01-06T08:14:11;-0.10;99.90
44509;DHT22;30214;52.246;14.408;2024-01-06T08:16:38;-0.10;99.90
44509;DHT22;30214;52.246;14.408;2024-01-06T08:19:05;-0.10;99.90
44509;DHT22;30214;52.246;14.408;2024-01-06T08:21:34;-0.10;99.90
44509;DHT22;30214;52.246;14.408;2024-01-06T08:24:03;-0.10;99.90
44509;DHT22;30214;52.246;14.408;2024-01-06T08:26:30;-0.10;99.90
44509;DHT22;30214;52.246;14.408;2024-01-06T08:29:00;-0.10;99.90
44509;DHT22;30214;52.246;14.408;2024-01-06T08:31:27;-0.10;99.90
44509;DHT22;30214;52.246;14.408;2024-01-06T08:33:54;-0.10;99.90
44509;DHT22;30214;52.246;14.408;2024-01-06T08:36:21;-0.10;99.90
44509;DHT22;30214;52.246;14.408;2024-01-06T08:38:48;-0.10;99.90
44509;DHT22;30214;52.246;14.408;2024-01-06T08:41:17;0.00;99.90
44509;DHT22;30214;52.246;14.408;2024-01-06T08:43:44;-0.10;99.90
44509;DHT22;30214;52.246;14.408;2024-01-06T08:46:11;-0.10;99.90
44509;DHT22;30214;52.246;14.408;2024-01-06T08:48:38;-0.10;99.90
44509;DHT22;30214;52.246;14.408;2024-01-06T08:51:05;0.00;99.90
44509;DHT22;30214;52.246;14.408;2024-01-06T08:53:33;-0.10;99.90
44509;DHT22;30214;52.246;14.408;2024-01-06T08:56:00;-0.10;99.90
44509;DHT22;30214;52.246;14.408;2024-01-06T08:58:28;-0.10;99.90
44509;DHT22;30214;52.246;14.408;2024-01-06T09:00:55;-0.10;99.90
44509;DHT22;30214;52.246;14.408;2024-01-06T09:03:22;-0.10;99.90
44509;DHT22;30214;52.246;14.408;2024-01-06T09:05:51;0.00;99.90
44509;DHT22;30214;52.246;14.408;2024-01-06T09:08:18;-0.10;99.90
44509;DHT22;30214;52.246;14.408;2024-01-06T09:10:45;-0.10;99.90
44509;DHT22;30214;52.246;14.408;2024-01-06T09:13:13;-0.10;99.90
44509;DHT22;30214;52.246;14.408;2024-01-06T09:15:40;-0.10;99.90
44509;DHT22;30214;52.246;14.408;2024-01-06T09:18:08;-0.10;99.90
44509;DHT22;30214;52.246;14.408;2024-01-06T09:20:35;0.00;99.90
44509;DHT22;30214;52.246;14.408;2024-01-06T09:23:03;-0.10;99.90
44509;DHT22;30214;52.246;14.408;2024-01-06T09:25:30;-0.10;99.90
44509;DHT22;30214;52.246;14.408;2024-01-06T09:27:57;-0.10;99.90
44509;DHT22;30214;52.246;14.408;2024-01-06T09:30:25;-0.10;99.90
44509;DHT22;30214;52.246;14.408;2024-01-06T09:32:54;-0.20;99.90
44509;DHT22;30214;52.246;14.408;2024-01-06T09:35:21;-0.10;99.90
44509;DHT22;30214;52.246;14.408;2024-01-06T09:37:48;-0.10;99.90
44509;DHT22;30214;52.246;14.408;2024-01-06T09:40:21;-0.10;99.90
44509;DHT22;30214;52.246;14.408;2024-01-06T09:42:53;-0.10;99.90
44509;DHT22;30214;52.246;14.408;2024-01-06T09:45:20;-0.10;99.90
44509;DHT22;30214;52.246;14.408;2024-01-06T09:47:48;-0.10;99.90
44509;DHT22;30214;52.246;14.408;2024-01-06T09:50:18;-0.10;99.90
44509;DHT22;30214;52.246;14.408;2024-01-06T09:52:46;-0.10;99.90
44509;DHT22;30214;52.246;14.408;2024-01-06T09:55:21;-0.10;99.90
44509;DHT22;30214;52.246;14.408;2024-01-06T09:57:49;-0.10;99.90
44509;DHT22;30214;52.246;14.408;2024-01-06T10:00:17;-0.20;99.90
44509;DHT22;30214;52.246;14.408;2024-01-06T10:02:45;-0.10;99.90
44509;DHT22;30214;52.246;14.408;2024-01-06T10:05:15;-0.10;99.90
44509;DHT22;30214;52.246;14.408;2024-01-06T10:07:44;-0.10;99.90
44509;DHT22;30214;52.246;14.408;2024-01-06T10:10:11;-0.20;99.90
44509;DHT22;30214;52.246;14.408;2024-01-06T10:12:38;-0.20;99.90
44509;DHT22;30214;52.246;14.408;2024-01-06T10:15:06;-0.20;99.90
44509;DHT22;30214;52.246;14.408;2024-01-06T10:20:03;-0.20;99.90
44509;DHT22;30214;52.246;14.408;2024-01-06T10:22:34;-0.20;99.90
44509;DHT22;30214;52.246;14.408;2024-01-06T10:25:03;-0.20;99.90
44509;DHT22;30214;52.246;14.408;2024-01-06T10:27:33;-0.10;99.90
44509;DHT22;30214;52.246;14.408;2024-01-06T10:30:00;-0.20;99.90
44509;DHT22;30214;52.246;14.408;2024-01-06T10:32:30;-0.10;99.90
44509;DHT22;30214;52.246;14.408;2024-01-06T10:35:04;-0.10;99.90
44509;DHT22;30214;52.246;14.408;2024-01-06T10:37:32;-0.10;99.90
44509;DHT22;30214;52.246;14.408;2024-01-06T10:40:10;-0.10;99.90
44509;DHT22;30214;52.246;14.408;2024-01-06T10:42:39;-0.10;99.90
44509;DHT22;30214;52.246;14.408;2024-01-06T10:45:08;-0.20;99.90
44509;DHT22;30214;52.246;14.408;2024-01-06T10:47:35;-0.20;99.90
44509;DHT22;30214;52.246;14.408;2024-01-06T10:50:03;-0.20;99.90
44509;DHT22;30214;52.246;14.408;2024-01-06T10:52:30;-0.20;99.90
44509;DHT22;30214;52.246;14.408;2024-01-06T10:54:58;-0.20;99.90
44509;DHT22;30214;52.246;14.408;2024-01-06T10:57:26;-0.20;99.90
44509;DHT22;30214;52.246;14.408;2024-01-06T10:59:58;-0.20;99.90
44509;DHT22;30214;52.246;14.408;2024-01-06T11:02:26;-0.20;99.90
44509;DHT22;30214;52.246;14.408;2024-01-06T11:04:53;-0.10;99.90
44509;DHT22;30214;52.246;14.408;2024-01-06T11:07:21;-0.20;99.90
44509;DHT22;30214;52.246;14.408;2024-01-06T11:09:50;-0.20;99.90
44509;DHT22;30214;52.246;14.408;2024-01-06T11:12:38;-0.20;99.90
44509;DHT22;30214;52.246;14.408;2024-01-06T11:15:05;-0.20;99.90
44509;DHT22;30214;52.246;14.408;2024-01-06T11:17:51;-0.20;99.90
44509;DHT22;30214;52.246;14.408;2024-01-06T11:20:23;-0.20;99.90
44509;DHT22;30214;52.246;14.408;2024-01-06T11:22:52;-0.10;99.90
44509;DHT22;30214;52.246;14.408;2024-01-06T11:25:20;-0.10;99.90
44509;DHT22;30214;52.246;14.408;2024-01-06T11:27:49;-0.10;99.90
44509;DHT22;30214;52.246;14.408;2024-01-06T11:30:20;-0.10;99.90
44509;DHT22;30214;52.246;14.408;2024-01-06T11:32:47;-0.10;99.90
44509;DHT22;30214;52.246;14.408;2024-01-06T11:35:14;-0.10;99.90
44509;DHT22;30214;52.246;14.408;2024-01-06T11:37:53;-0.10;99.90
44509;DHT22;30214;52.246;14.408;2024-01-06T11:40:23;-0.20;99.90
44509;DHT22;30214;52.246;14.408;2024-01-06T11:43:00;-0.20;99.90
44509;DHT22;30214;52.246;14.408;2024-01-06T11:45:29;-0.30;99.90
44509;DHT22;30214;52.246;14.408;2024-01-06T11:47:57;-0.30;99.90
44509;DHT22;30214;52.246;14.408;2024-01-06T11:50:28;-0.20;99.90
44509;DHT22;30214;52.246;14.408;2024-01-06T11:52:56;-0.20;99.90
44509;DHT22;30214;52.246;14.408;2024-01-06T11:55:23;-0.10;99.90
44509;DHT22;30214;52.246;14.408;2024-01-06T11:57:53;-0.10;99.90
44509;DHT22;30214;52.246;14.408;2024-01-06T12:00:23;-0.20;99.90
44509;DHT22;30214;52.246;14.408;2024-01-06T12:02:50;-0.20;99.90
44509;DHT22;30214;52.246;14.408;2024-01-06T12:05:22;-0.10;99.90
44509;DHT22;30214;52.246;14.408;2024-01-06T12:07:53;-0.20;99.90
44509;DHT22;30214;52.246;14.408;2024-01-06T12:10:21;-0.20;99.90
44509;DHT22;30214;52.246;14.408;2024-01-06T12:15:32;-0.20;99.90
44509;DHT22;30214;52.246;14.408;2024-01-06T12:18:02;-0.20;99.90
44509;DHT22;30214;52.246;14.408;2024-01-06T12:20:29;-0.10;99.90
44509;DHT22;30214;52.246;14.408;2024-01-06T12:22:59;-0.10;99.90
44509;DHT22;30214;52.246;14.408;2024-01-06T12:25:28;-0.10;99.90
44509;DHT22;30214;52.246;14.408;2024-01-06T12:28:00;-0.10;99.90
44509;DHT22;30214;52.246;14.408;2024-01-06T12:30:30;-0.10;99.90
44509;DHT22;30214;52.246;14.408;2024-01-06T12:33:00;-0.20;99.90
44509;DHT22;30214;52.246;14.408;2024-01-06T12:35:27;-0.20;99.90
44509;DHT22;30214;52.246;14.408;2024-01-06T12:37:59;-0.20;99.90
44509;DHT22;30214;52.246;14.408;2024-01-06T12:40:31;-0.20;99.90
44509;DHT22;30214;52.246;14.408;2024-01-06T12:43:00;-0.20;99.90
44509;DHT22;30214;52.246;14.408;2024-01-06T12:45:27;-0.20;99.90
44509;DHT22;30214;52.246;14.408;2024-01-06T12:47:56;-0.20;99.90
44509;DHT22;30214;52.246;14.408;2024-01-06T12:50:25;-0.20;99.90
44509;DHT22;30214;52.246;14.408;2024-01-06T12:52:52;-0.20;99.90
44509;DHT22;30214;52.246;14.408;2024-01-06T12:55:19;-0.20;99.90
44509;DHT22;30214;52.246;14.408;2024-01-06T12:57:46;-0.10;99.90
44509;DHT22;30214;52.246;14.408;2024-01-06T13:00:13;-0.20;99.90
44509;DHT22;30214;52.246;14.408;2024-01-06T13:02:41;-0.10;99.90
44509;DHT22;30214;52.246;14.408;2024-01-06T13:05:10;-0.20;99.90
44509;DHT22;30214;52.246;14.408;2024-01-06T13:07:38;-0.30;99.90
44509;DHT22;30214;52.246;14.408;2024-01-06T13:10:05;-0.30;99.90
44509;DHT22;30214;52.246;14.408;2024-01-06T13:12:33;-0.30;99.90
44509;DHT22;30214;52.246;14.408;2024-01-06T13:15:00;-0.30;99.90
44509;DHT22;30214;52.246;14.408;2024-01-06T13:17:27;-0.30;99.90
44509;DHT22;30214;52.246;14.408;2024-01-06T13:19:54;-0.20;99.90
44509;DHT22;30214;52.246;14.408;2024-01-06T13:22:23;-0.20;99.90
44509;DHT22;30214;52.246;14.408;2024-01-06T13:24:51;-0.30;99.90
44509;DHT22;30214;52.246;14.408;2024-01-06T13:27:18;-0.30;99.90
44509;DHT22;30214;52.246;14.408;2024-01-06T13:29:45;-0.40;99.90
44509;DHT22;30214;52.246;14.408;2024-01-06T13:32:12;-0.40;99.90
44509;DHT22;30214;52.246;14.408;2024-01-06T13:34:40;-0.40;99.90
44509;DHT22;30214;52.246;14.408;2024-01-06T13:37:07;-0.30;99.90
44509;DHT22;30214;52.246;14.408;2024-01-06T13:39:35;-0.40;99.90
44509;DHT22;30214;52.246;14.408;2024-01-06T13:42:02;-0.40;99.90
44509;DHT22;30214;52.246;14.408;2024-01-06T13:44:30;-0.30;99.90
44509;DHT22;30214;52.246;14.408;2024-01-06T13:46:57;-0.40;99.90
44509;DHT22;30214;52.246;14.408;2024-01-06T13:49:25;-0.40;99.90
44509;DHT22;30214;52.246;14.408;2024-01-06T13:51:53;-0.40;99.90
44509;DHT22;30214;52.246;14.408;2024-01-06T13:54:20;-0.40;99.90
44509;DHT22;30214;52.246;14.408;2024-01-06T13:56:48;-0.40;99.90
44509;DHT22;30214;52.246;14.408;2024-01-06T13:59:15;-0.40;99.90
44509;DHT22;30214;52.246;14.408;2024-01-06T14:01:42;-0.50;99.90
44509;DHT22;30214;52.246;14.408;2024-01-06T14:04:09;-0.50;99.90
44509;DHT22;30214;52.246;14.408;2024-01-06T14:06:36;-0.50;99.90
44509;DHT22;30214;52.246;14.408;2024-01-06T14:09:05;-0.40;99.90
44509;DHT22;30214;52.246;14.408;2024-01-06T14:11:32;-0.50;99.90
44509;DHT22;30214;52.246;14.408;2024-01-06T14:14:01;-0.50;99.90
44509;DHT22;30214;52.246;14.408;2024-01-06T14:16:28;-0.50;99.90
44509;DHT22;30214;52.246;14.408;2024-01-06T14:19:01;-0.50;99.90
44509;DHT22;30214;52.246;14.408;2024-01-06T14:21:31;-0.50;99.90
44509;DHT22;30214;52.246;14.408;2024-01-06T14:24:00;-0.40;99.90
44509;DHT22;30214;52.246;14.408;2024-01-06T14:26:29;-0.50;99.90
44509;DHT22;30214;52.246;14.408;2024-01-06T14:28:57;-0.50;99.90
44509;DHT22;30214;52.246;14.408;2024-01-06T14:31:26;-0.50;99.90
44509;DHT22;30214;52.246;14.408;2024-01-06T14:33:54;-0.60;99.90
44509;DHT22;30214;52.246;14.408;2024-01-06T14:36:21;-0.50;99.90
44509;DHT22;30214;52.246;14.408;2024-01-06T14:38:48;-0.60;99.90
44509;DHT22;30214;52.246;14.408;2024-01-06T14:41:17;-0.60;99.90
44509;DHT22;30214;52.246;14.408;2024-01-06T14:43:44;-0.50;99.90
44509;DHT22;30214;52.246;14.408;2024-01-06T14:46:11;-0.60;99.90
44509;DHT22;30214;52.246;14.408;2024-01-06T14:48:39;-0.60;99.90
44509;DHT22;30214;52.246;14.408;2024-01-06T14:51:06;-0.60;99.90
44509;DHT22;30214;52.246;14.408;2024-01-06T14:53:33;-0.60;99.90
44509;DHT22;30214;52.246;14.408;2024-01-06T14:56:00;-0.60;99.90
44509;DHT22;30214;52.246;14.408;2024-01-06T14:58:29;-0.60;99.90
44509;DHT22;30214;52.246;14.408;2024-01-06T15:00:56;-0.60;99.90
44509;DHT22;30214;52.246;14.408;2024-01-06T15:03:25;-0.60;99.90
44509;DHT22;30214;52.246;14.408;2024-01-06T15:05:55;-0.70;99.90
44509;DHT22;30214;52.246;14.408;2024-01-06T15:08:22;-0.70;99.90
44509;DHT22;30214;52.246;14.408;2024-01-06T15:10:49;-0.60;99.90
44509;DHT22;30214;52.246;14.408;2024-01-06T15:13:16;-0.60;99.90
44509;DHT22;30214;52.246;14.408;2024-01-06T15:15:43;-0.70;99.90
44509;DHT22;30214;52.246;14.408;2024-01-06T15:18:10;-0.60;99.90
44509;DHT22;30214;52.246;14.408;2024-01-06T15:20:37;-0.60;99.90
44509;DHT22;30214;52.246;14.408;2024-01-06T15:23:07;-0.70;99.90
44509;DHT22;30214;52.246;14.408;2024-01-06T15:25:41;-0.70;99.90
44509;DHT22;30214;52.246;14.408;2024-01-06T15:28:08;-0.70;99.90
44509;DHT22;30214;52.246;14.408;2024-01-06T15:30:35;-0.80;99.90